createdAt,value
2023-01-29T00:01:56.330Z,40.38
2023-01-29T00:05:26.043Z,43.22
2023-01-29T00:08:39.645Z,42.83
2023-01-29T00:11:52.321Z,36.05
2023-01-29T00:15:05.079Z,34.50
2023-01-29T00:18:17.774Z,35.35
2023-01-29T00:21:33.492Z,37.92
2023-01-29T00:24:46.126Z,39.10
2023-01-29T00:27:58.590Z,41.15
2023-01-29T00:31:13.224Z,42.95
2023-01-29T00:34:25.632Z,44.88
2023-01-29T00:37:38.396Z,49.28
2023-01-29T00:41:09.692Z,43.65
2023-01-29T00:44:40.735Z,44.47
2023-01-29T00:47:53.127Z,46.45
2023-01-29T00:51:06.722Z,41.08
2023-01-29T00:54:19.277Z,40.95
2023-01-29T00:57:32.367Z,42.15
2023-01-29T01:00:44.803Z,43.67
2023-01-29T01:03:58.503Z,41.05
2023-01-29T01:10:41.042Z,49.80
2023-01-29T01:13:54.535Z,43.80
2023-01-29T01:17:07.192Z,42.35
2023-01-29T01:20:19.691Z,44.90
2023-01-29T01:23:32.422Z,45.15
2023-01-29T01:26:44.809Z,43.67
2023-01-29T01:29:58.024Z,46.47
2023-01-29T01:33:10.378Z,42.65
2023-01-29T01:36:22.999Z,47.22
2023-01-29T01:39:35.371Z,44.60
2023-01-29T01:42:51.826Z,48.10
2023-01-29T01:46:04.489Z,47.22
2023-01-29T01:49:18.473Z,45.38
2023-01-29T01:52:31.245Z,51.72
2023-01-29T01:55:52.487Z,47.70
2023-01-29T01:59:05.790Z,47.92
2023-01-29T02:02:36.963Z,49.08
2023-01-29T02:06:08.272Z,49.78
2023-01-29T02:09:38.874Z,44.47
2023-01-29T02:12:51.567Z,45.60
2023-01-29T02:16:04.023Z,47.58
2023-01-29T02:19:44.272Z,48.20
2023-01-29T02:23:34.369Z,49.17
2023-01-29T02:27:13.671Z,49.78
2023-01-29T02:30:31.931Z,50.53
2023-01-29T02:34:06.154Z,52.20
2023-01-29T02:37:18.607Z,52.90
2023-01-29T02:40:37.092Z,56.72
2023-01-29T02:44:04.626Z,51.63
2023-01-29T02:47:23.253Z,48.97
2023-01-29T02:50:41.178Z,50.65
2023-01-29T02:54:10.292Z,53.72
2023-01-29T02:57:25.483Z,52.75
2023-01-29T03:00:40.331Z,46.85
2023-01-29T03:03:53.582Z,54.10
2023-01-29T03:07:10.706Z,52.67
2023-01-29T03:10:35.411Z,47.65
2023-01-29T03:13:56.187Z,53.83
2023-01-29T03:17:10.564Z,51.15
2023-01-29T03:20:26.522Z,55.75
2023-01-29T03:23:57.603Z,55.70
2023-01-29T03:27:29.410Z,51.37
2023-01-29T03:31:06.768Z,50.85
2023-01-29T03:34:28.642Z,47.47
2023-01-29T03:37:43.583Z,47.45
2023-01-29T03:41:00.305Z,47.75
2023-01-29T03:44:30.766Z,50.20
2023-01-29T03:47:55.871Z,51.42
2023-01-29T03:51:12.097Z,51.00
2023-01-29T03:54:39.271Z,49.33
2023-01-29T03:58:06.492Z,50.78
2023-01-29T04:01:48.901Z,47.72
2023-01-29T04:05:07.755Z,50.47
2023-01-29T04:08:25.117Z,48.87
2023-01-29T04:11:38.767Z,48.28
2023-01-29T04:14:51.113Z,47.95
2023-01-29T04:18:04.135Z,47.90
2023-01-29T04:21:18.503Z,49.63
2023-01-29T04:24:31.191Z,51.75
2023-01-29T04:27:50.375Z,51.80
2023-01-29T04:31:06.794Z,47.08
2023-01-29T04:34:29.313Z,42.08
2023-01-29T04:37:48.354Z,50.72
2023-01-29T04:41:11.742Z,44.50
2023-01-29T04:44:42.627Z,51.92
2023-01-29T04:48:04.016Z,47.13
2023-01-29T04:51:21.220Z,47.88
2023-01-29T04:55:29.437Z,46.35
2023-01-29T04:58:44.626Z,48.93
2023-01-29T05:01:57.051Z,39.75
2023-01-29T05:05:09.681Z,49.83
2023-01-29T05:08:23.219Z,50.88
2023-01-29T05:11:36.186Z,48.95
2023-01-29T05:14:48.508Z,53.17
2023-01-29T05:18:03.220Z,46.08
2023-01-29T05:21:15.643Z,46.42
2023-01-29T05:24:28.305Z,45.35
2023-01-29T05:27:59.264Z,40.70
2023-01-29T05:31:12.135Z,51.63
2023-01-29T05:34:24.648Z,46.78
2023-01-29T05:37:37.444Z,50.67
2023-01-29T05:40:49.827Z,50.40
2023-01-29T05:44:02.419Z,50.88
2023-01-29T05:47:14.751Z,45.65
2023-01-29T05:50:27.560Z,43.92
2023-01-29T05:53:40.278Z,50.25
2023-01-29T05:56:55.474Z,44.50
2023-01-29T06:00:08.797Z,49.80
2023-01-29T06:03:24.790Z,54.13
2023-01-29T06:06:37.385Z,51.80
2023-01-29T06:09:49.739Z,60.17
2023-01-29T06:13:02.544Z,57.72
2023-01-29T06:16:15.323Z,53.20
2023-01-29T06:19:27.918Z,54.28
2023-01-29T06:22:40.246Z,52.10
2023-01-29T06:25:52.867Z,54.92
2023-01-29T06:29:05.272Z,53.35
2023-01-29T06:32:17.908Z,53.72
2023-01-29T06:35:30.297Z,58.87
2023-01-29T06:38:42.967Z,53.72
2023-01-29T06:41:55.341Z,54.63
2023-01-29T06:45:08.507Z,54.50
2023-01-29T06:48:20.878Z,52.58
2023-01-29T06:51:33.477Z,47.28
2023-01-29T06:54:45.835Z,49.30
2023-01-29T06:57:58.509Z,48.85
2023-01-29T07:01:15.516Z,50.58
2023-01-29T07:04:37.907Z,54.17
2023-01-29T07:07:50.276Z,46.63
2023-01-29T07:11:03.451Z,56.67
2023-01-29T07:14:15.821Z,63.92
2023-01-29T07:17:28.468Z,51.63
2023-01-29T07:20:41.090Z,43.40
2023-01-29T07:23:53.745Z,48.72
2023-01-29T07:27:06.151Z,43.55
2023-01-29T07:30:19.132Z,48.87
2023-01-29T07:33:32.005Z,52.42
2023-01-29T07:36:44.623Z,59.65
2023-01-29T07:39:56.967Z,60.90
2023-01-29T07:43:10.127Z,64.32
2023-01-29T07:46:23.603Z,56.22
2023-01-29T07:49:36.218Z,54.33
2023-01-29T07:52:48.579Z,46.75
2023-01-29T07:56:01.251Z,43.55
2023-01-29T07:59:13.624Z,47.62
2023-01-29T08:02:26.256Z,44.63
2023-01-29T08:05:38.868Z,43.92
2023-01-29T08:08:52.245Z,36.92
2023-01-29T08:12:05.056Z,31.10
2023-01-29T08:15:17.450Z,35.80
2023-01-29T08:18:31.576Z,32.97
2023-01-29T08:21:43.983Z,27.27
2023-01-29T08:25:06.293Z,31.37
2023-01-29T08:28:20.425Z,40.60
2023-01-29T08:31:33.620Z,27.15
2023-01-29T08:34:46.041Z,26.35
2023-01-29T08:38:00.028Z,27.13
2023-01-29T08:41:12.383Z,37.25
2023-01-29T08:44:24.991Z,31.73
2023-01-29T08:47:37.347Z,25.35
2023-01-29T08:50:50.129Z,31.10
2023-01-29T08:54:02.467Z,25.08
2023-01-29T08:57:15.094Z,25.42
2023-01-29T09:00:27.461Z,25.10
2023-01-29T09:03:41.219Z,25.70
2023-01-29T09:06:53.599Z,26.30
2023-01-29T09:10:06.419Z,25.42
2023-01-29T09:13:18.726Z,24.45
2023-01-29T09:16:31.398Z,26.60
2023-01-29T09:19:43.801Z,28.60
2023-01-29T09:22:56.835Z,27.77
2023-01-29T09:26:09.688Z,25.40
2023-01-29T09:29:22.333Z,32.55
2023-01-29T09:32:53.608Z,26.62
2023-01-29T09:36:07.302Z,28.35
2023-01-29T09:39:19.603Z,21.92
2023-01-29T09:42:42.001Z,27.60
2023-01-29T09:46:02.218Z,28.10
2023-01-29T09:49:16.187Z,29.27
2023-01-29T09:52:32.317Z,31.48
2023-01-29T09:55:54.396Z,30.40
2023-01-29T09:59:08.327Z,31.02
2023-01-29T10:02:39.160Z,25.67
2023-01-29T10:05:55.751Z,29.15
2023-01-29T10:09:32.616Z,23.40
2023-01-29T10:12:54.005Z,22.67
2023-01-29T10:16:21.989Z,29.35
2023-01-29T10:19:56.371Z,18.65
2023-01-29T10:23:18.928Z,17.77
2023-01-29T10:26:31.625Z,24.83
2023-01-29T10:29:44.544Z,22.70
2023-01-29T10:32:59.905Z,24.60
2023-01-29T10:36:15.389Z,22.17
2023-01-29T10:39:30.244Z,20.10
2023-01-29T10:42:46.403Z,21.48
2023-01-29T10:46:26.576Z,22.70
2023-01-29T10:50:17.797Z,21.40
2023-01-29T10:54:14.986Z,22.48
2023-01-29T10:57:48.935Z,23.12
2023-01-29T11:01:01.552Z,17.95
2023-01-29T11:04:13.888Z,20.02
2023-01-29T11:07:27.848Z,18.85
2023-01-29T11:11:11.680Z,19.23
2023-01-29T11:14:28.530Z,17.02
2023-01-29T11:17:41.789Z,22.33
2023-01-29T11:21:03.042Z,15.20
2023-01-29T11:24:18.759Z,18.50
2023-01-29T11:27:33.216Z,18.87
2023-01-29T11:30:45.575Z,21.15
2023-01-29T11:34:18.551Z,16.85
2023-01-29T11:37:41.083Z,21.90
2023-01-29T11:40:54.014Z,17.95
2023-01-29T11:44:18.333Z,17.65
2023-01-29T11:47:31.011Z,19.30
2023-01-29T11:50:43.474Z,18.27
2023-01-29T11:53:57.391Z,22.87
2023-01-29T11:57:24.777Z,14.20
2023-01-29T12:03:53.069Z,20.75
2023-01-29T12:07:05.511Z,18.67
2023-01-29T12:10:35.512Z,18.27
2023-01-29T12:13:47.852Z,17.02
2023-01-29T12:17:07.514Z,15.45
2023-01-29T12:20:24.242Z,21.98
2023-01-29T12:23:58.358Z,18.77
2023-01-29T12:27:46.688Z,20.75
2023-01-29T12:31:12.622Z,14.10
2023-01-29T12:34:33.753Z,21.75
2023-01-29T12:38:21.887Z,20.02
2023-01-29T12:41:34.243Z,20.00
2023-01-29T12:45:08.723Z,20.25
2023-01-29T12:48:26.804Z,22.40
2023-01-29T12:51:43.292Z,20.15
2023-01-29T12:55:20.891Z,14.95
2023-01-29T12:58:36.545Z,14.75
2023-01-29T13:01:56.784Z,20.02
2023-01-29T13:05:38.718Z,21.42
2023-01-29T13:09:07.503Z,17.75
2023-01-29T13:12:20.882Z,22.17
2023-01-29T13:15:40.805Z,19.50
2023-01-29T13:19:00.618Z,18.20
2023-01-29T13:22:22.776Z,16.67
2023-01-29T13:25:35.417Z,15.68
2023-01-29T13:28:47.896Z,19.85
2023-01-29T13:32:01.537Z,18.73
2023-01-29T13:35:14.337Z,18.52
2023-01-29T13:38:29.493Z,21.60
2023-01-29T13:41:42.544Z,19.30
2023-01-29T13:44:56.334Z,20.30
2023-01-29T13:48:18.695Z,15.93
2023-01-29T13:51:35.308Z,15.75
2023-01-29T13:55:02.588Z,18.87
2023-01-29T14:01:49.318Z,18.23
2023-01-29T14:05:29.546Z,17.17
2023-01-29T14:08:47.398Z,20.88
2023-01-29T14:12:00.112Z,17.70
2023-01-29T14:15:19.095Z,16.73
2023-01-29T14:18:34.735Z,22.52
2023-01-29T14:21:49.191Z,20.15
2023-01-29T14:25:04.773Z,19.90
2023-01-29T14:28:21.379Z,20.12
2023-01-29T14:31:44.185Z,17.92
2023-01-29T14:35:03.899Z,15.52
2023-01-29T14:38:16.686Z,18.85
2023-01-29T14:41:33.184Z,21.42
2023-01-29T14:44:45.858Z,18.20
2023-01-29T14:48:21.215Z,15.40
2023-01-29T14:51:35.810Z,18.58
2023-01-29T14:54:48.288Z,18.05
2023-01-29T14:58:00.959Z,22.05
2023-01-29T15:01:22.499Z,16.20
2023-01-29T15:04:41.876Z,20.77
2023-01-29T15:08:04.783Z,18.95
2023-01-29T15:11:37.707Z,11.85
2023-01-29T15:15:14.949Z,16.23
2023-01-29T15:18:47.987Z,19.67
2023-01-29T15:22:13.337Z,17.58
2023-01-29T15:25:25.917Z,22.48
2023-01-29T15:28:38.814Z,14.75
2023-01-29T15:31:51.611Z,17.23
2023-01-29T15:35:36.807Z,26.40
2023-01-29T15:38:49.489Z,23.58
2023-01-29T15:42:11.476Z,16.05
2023-01-29T15:45:33.463Z,13.07
2023-01-29T15:48:45.813Z,15.50
2023-01-29T15:51:59.739Z,17.12
2023-01-29T15:55:12.079Z,14.35
2023-01-29T15:58:29.496Z,17.73
2023-01-29T16:01:42.874Z,13.20
2023-01-29T16:04:55.543Z,15.02
2023-01-29T16:08:12.889Z,19.48
2023-01-29T16:11:25.556Z,18.48
2023-01-29T16:14:37.897Z,17.25
2023-01-29T16:17:50.743Z,16.23
2023-01-29T16:21:17.214Z,22.70
2023-01-29T16:24:31.283Z,20.62
2023-01-29T16:27:43.924Z,16.87
2023-01-29T16:31:02.663Z,13.68
2023-01-29T16:34:19.543Z,19.00
2023-01-29T16:37:36.401Z,17.83
2023-01-29T16:41:14.707Z,17.40
2023-01-29T16:44:40.869Z,22.37
2023-01-29T16:48:00.830Z,23.20
2023-01-29T16:51:36.905Z,20.70
2023-01-29T16:54:49.373Z,17.65
2023-01-29T16:58:04.586Z,20.60
2023-01-29T17:01:16.983Z,23.42
2023-01-29T17:04:29.721Z,20.73
2023-01-29T17:07:44.243Z,24.58
2023-01-29T17:10:56.890Z,19.52
2023-01-29T17:14:09.603Z,29.65
2023-01-29T17:17:22.393Z,22.98
2023-01-29T17:20:34.757Z,22.80
2023-01-29T17:23:47.440Z,22.23
2023-01-29T17:27:00.806Z,19.77
2023-01-29T17:30:15.440Z,26.80
2023-01-29T17:33:27.829Z,23.77
2023-01-29T17:36:43.930Z,21.23
2023-01-29T17:39:56.380Z,20.17
2023-01-29T17:43:11.700Z,22.90
2023-01-29T17:46:24.061Z,26.75
2023-01-29T17:49:37.459Z,23.92
2023-01-29T17:52:50.349Z,23.10
2023-01-29T17:56:02.981Z,23.65
2023-01-29T17:59:16.903Z,27.48
2023-01-29T18:02:30.088Z,25.50
2023-01-29T18:05:46.816Z,23.95
2023-01-29T18:08:59.176Z,27.87
2023-01-29T18:12:11.904Z,25.10
2023-01-29T18:15:24.204Z,31.48
2023-01-29T18:18:37.692Z,28.30
2023-01-29T18:21:50.314Z,26.70
2023-01-29T18:25:02.949Z,39.28
2023-01-29T18:28:17.139Z,31.58
2023-01-29T18:31:29.852Z,36.67
2023-01-29T18:34:42.320Z,30.80
2023-01-29T18:37:55.088Z,35.67
2023-01-29T18:41:10.630Z,38.70
2023-01-29T18:44:23.316Z,35.53
2023-01-29T18:47:35.621Z,39.08
2023-01-29T18:50:48.241Z,32.85
2023-01-29T18:54:01.124Z,33.75
2023-01-29T18:57:43.692Z,31.05
2023-01-29T19:00:46.427Z,30.05
2023-01-29T19:04:00.342Z,27.67
2023-01-29T19:07:13.485Z,32.50
2023-01-29T19:10:26.365Z,37.35
2023-01-29T19:13:38.782Z,60.55
2023-01-29T19:16:51.530Z,37.05
2023-01-29T19:20:04.832Z,32.40
2023-01-29T19:23:17.456Z,34.88
2023-01-29T19:26:33.949Z,36.00
2023-01-29T19:29:46.672Z,29.10
2023-01-29T19:32:58.999Z,32.72
2023-01-29T19:36:13.227Z,26.83
2023-01-29T19:39:29.899Z,25.20
2023-01-29T19:42:43.658Z,29.75
2023-01-29T19:46:00.430Z,27.92
2023-01-29T19:49:13.083Z,29.20
2023-01-29T19:52:51.213Z,28.42
2023-01-29T19:56:06.257Z,28.80
2023-01-29T19:59:19.175Z,23.70
2023-01-29T20:02:32.479Z,25.73
2023-01-29T20:05:45.072Z,27.17
2023-01-29T20:08:57.408Z,22.87
2023-01-29T20:12:10.031Z,25.50
2023-01-29T20:15:22.554Z,30.95
2023-01-29T20:18:35.151Z,23.45
2023-01-29T20:21:48.912Z,33.03
2023-01-29T20:25:01.638Z,33.63
2023-01-29T20:28:15.149Z,29.80
2023-01-29T20:31:27.789Z,29.90
2023-01-29T20:34:40.956Z,34.45
2023-01-29T20:37:53.582Z,26.75
2023-01-29T20:41:16.188Z,27.83
2023-01-29T20:44:28.818Z,38.53
2023-01-29T20:47:42.385Z,43.87
2023-01-29T20:50:55.148Z,42.80
2023-01-29T20:54:08.145Z,38.03
2023-01-29T20:57:20.999Z,32.75
2023-01-29T21:00:33.522Z,40.42
2023-01-29T21:03:46.616Z,37.92
2023-01-29T21:06:58.921Z,41.63
2023-01-29T21:10:11.672Z,40.33
2023-01-29T21:13:24.038Z,37.15
2023-01-29T21:16:36.701Z,44.25
2023-01-29T21:19:50.207Z,47.62
2023-01-29T21:23:05.254Z,49.35
2023-01-29T21:26:19.066Z,48.67
2023-01-29T21:29:31.757Z,41.05
2023-01-29T21:32:44.140Z,62.65
2023-01-29T21:35:59.700Z,57.62
2023-01-29T21:39:17.996Z,43.17
2023-01-29T21:42:49.257Z,44.95
2023-01-29T21:46:11.406Z,41.65
2023-01-29T21:49:24.283Z,50.08
2023-01-29T21:52:36.598Z,44.42
2023-01-29T21:55:49.236Z,58.28
2023-01-29T21:59:02.432Z,45.85
2023-01-29T22:02:15.254Z,53.10
2023-01-29T22:05:29.216Z,40.63
2023-01-29T22:08:41.600Z,44.33
2023-01-29T22:11:54.406Z,32.60
2023-01-29T22:15:07.742Z,37.13
2023-01-29T22:18:20.411Z,35.63
2023-01-29T22:21:35.072Z,34.97
2023-01-29T22:24:48.638Z,41.10
2023-01-29T22:28:00.997Z,40.40
2023-01-29T22:31:13.707Z,39.33
2023-01-29T22:34:26.011Z,37.53
2023-01-29T22:37:38.618Z,33.28
2023-01-29T22:40:54.200Z,46.20
2023-01-29T22:44:06.911Z,40.97
2023-01-29T22:47:19.277Z,36.47
2023-01-29T22:50:31.914Z,44.00
2023-01-29T22:53:54.382Z,40.12
2023-01-29T22:57:07.092Z,40.65
2023-01-29T23:00:20.083Z,40.08
2023-01-29T23:03:32.928Z,41.80
2023-01-29T23:06:45.255Z,41.47
2023-01-29T23:09:58.115Z,48.75
2023-01-29T23:13:10.507Z,44.70
2023-01-29T23:16:26.791Z,51.13
2023-01-29T23:22:52.617Z,40.67
2023-01-29T23:26:24.683Z,36.70
2023-01-29T23:29:37.400Z,38.45
2023-01-29T23:32:50.101Z,31.42
2023-01-29T23:36:02.765Z,28.30
2023-01-29T23:39:15.305Z,33.67
2023-01-29T23:42:27.910Z,34.53
2023-01-29T23:45:41.292Z,36.13
2023-01-29T23:48:53.912Z,32.75
2023-01-29T23:52:06.267Z,33.35
2023-01-29T23:55:18.911Z,32.97
2023-01-29T23:58:31.486Z,41.90
